Time;durP1;ratioP1;P1;durP2;ratioP2;P2;SDS_P1;SDS_P2;PMS_P1;PMS_P2;Temp;Humidity;BMP_temperature;BMP_pressure;BME280_temperature;BME280_humidity;BME280_pressure;Samples;Min_cycle;Max_cycle;Signal;HPM_P1;HPM_P2
2022/08/22 00:00:18;;;;;;;3.63;1.80;;;;;;;;;;5094128;28;20020;-86
2022/08/22 00:02:47;;;;;;;3.83;1.75;;;;;;;;;;5092611;28;20023;-86
2022/08/22 00:05:36;;;;;;;3.33;1.70;;;;;;;;;;5094062;28;20469;-86
2022/08/22 00:08:02;;;;;;;2.65;1.70;;;;;;;;;;5091394;28;20020;-86
2022/08/22 00:10:47;;;;;;;3.53;1.60;;;;;;;;;;5093076;28;20028;-87
2022/08/22 00:13:46;;;;;;;3.92;1.65;;;;;;;;;;5091898;28;20115;-86
2022/08/22 00:16:17;;;;;;;3.42;1.92;;;;;;;;;;5048234;28;20108;-86
2022/08/22 00:18:54;;;;;;;4.25;2.00;;;;;;;;;;5092923;28;20034;-85
2022/08/22 00:21:29;;;;;;;4.63;1.55;;;;;;;;;;5092540;28;20032;-86
2022/08/22 00:23:58;;;;;;;5.32;1.92;;;;;;;;;;5081467;28;20064;-86
2022/08/22 00:26:33;;;;;;;3.20;1.58;;;;;;;;;;5072626;28;20561;-85
2022/08/22 00:29:01;;;;;;;3.90;1.95;;;;;;;;;;5071721;28;20032;-86
2022/08/22 00:31:30;;;;;;;3.90;1.58;;;;;;;;;;5073231;28;20390;-86
2022/08/22 00:34:15;;;;;;;3.67;1.70;;;;;;;;;;5071490;28;20425;-86
2022/08/22 00:36:50;;;;;;;2.70;1.63;;;;;;;;;;5072051;28;20025;-86
2022/08/22 00:39:18;;;;;;;4.80;1.73;;;;;;;;;;5089415;28;20058;-89
2022/08/22 00:41:55;;;;;;;4.30;1.80;;;;;;;;;;5093765;28;20020;-86
2022/08/22 00:44:21;;;;;;;3.83;1.70;;;;;;;;;;5091989;28;20039;-86
2022/08/22 00:46:53;;;;;;;2.67;1.60;;;;;;;;;;5092136;28;20024;-86
2022/08/22 00:49:28;;;;;;;3.80;1.70;;;;;;;;;;5086891;28;20378;-85
2022/08/22 00:52:03;;;;;;;4.68;1.73;;;;;;;;;;5090383;28;20016;-86
2022/08/22 00:54:32;;;;;;;4.25;2.00;;;;;;;;;;5079857;28;20028;-86
2022/08/22 00:57:06;;;;;;;3.20;1.70;;;;;;;;;;5083343;28;20020;-86
2022/08/22 00:59:50;;;;;;;3.33;1.65;;;;;;;;;;5073226;28;20021;-86
2022/08/22 01:02:37;;;;;;;3.35;1.80;;;;;;;;;;5081462;28;20477;-86
2022/08/22 01:05:22;;;;;;;2.50;1.80;;;;;;;;;;5085435;28;20466;-86
2022/08/22 01:08:11;;;;;;;4.60;1.88;;;;;;;;;;5091754;28;20494;-86
2022/08/22 01:10:45;;;;;;;6.13;2.10;;;;;;;;;;5093014;28;20020;-87
2022/08/22 01:13:14;;;;;;;2.22;1.58;;;;;;;;;;5091938;28;20032;-86
2022/08/22 01:15:41;;;;;;;2.83;1.70;;;;;;;;;;5093455;28;20035;-85
2022/08/22 01:18:34;;;;;;;3.65;1.75;;;;;;;;;;5089212;28;20017;-86
2022/08/22 01:21:16;;;;;;;5.13;1.80;;;;;;;;;;5071573;28;20324;-86
2022/08/22 01:23:42;;;;;;;4.05;1.80;;;;;;;;;;5072417;28;20035;-86
2022/08/22 01:26:27;;;;;;;3.55;1.80;;;;;;;;;;5076492;28;20045;-86
2022/08/22 01:28:56;;;;;;;4.25;1.75;;;;;;;;;;5075461;28;20036;-86
2022/08/22 01:31:41;;;;;;;6.32;2.15;;;;;;;;;;5075438;28;20031;-86
2022/08/22 01:34:26;;;;;;;3.72;1.90;;;;;;;;;;5083069;28;20035;-86
2022/08/22 01:37:07;;;;;;;4.05;1.83;;;;;;;;;;5095780;28;20031;-86
2022/08/22 01:39:35;;;;;;;3.78;2.10;;;;;;;;;;5096552;28;20031;-86
2022/08/22 01:42:12;;;;;;;3.75;2.00;;;;;;;;;;5096722;28;20026;-86
2022/08/22 01:45:01;;;;;;;4.07;1.98;;;;;;;;;;5095581;28;20024;-86
2022/08/22 01:47:38;;;;;;;4.13;1.90;;;;;;;;;;5096580;28;20385;-85
2022/08/22 01:50:20;;;;;;;2.85;1.90;;;;;;;;;;5094667;28;20046;-86
2022/08/22 01:52:49;;;;;;;2.78;1.90;;;;;;;;;;5096382;28;20069;-86
2022/08/22 01:55:34;;;;;;;3.05;1.80;;;;;;;;;;5096337;28;20520;-86
2022/08/22 01:58:12;;;;;;;4.85;1.80;;;;;;;;;;5096245;28;20509;-86
2022/08/22 02:00:38;;;;;;;;;;;;;;;;;;5095339;28;20035;-86
2022/08/22 02:03:12;;;;;;;4.15;1.83;;;;;;;;;;5095078;28;19908;-85
2022/08/22 02:05:57;;;;;;;4.63;1.80;;;;;;;;;;5095127;28;20028;-86
2022/08/22 02:08:31;;;;;;;4.07;1.90;;;;;;;;;;5094468;28;20032;-86
2022/08/22 02:10:57;;;;;;;3.55;1.63;;;;;;;;;;5094849;28;20020;-86
2022/08/22 02:13:29;;;;;;;3.38;1.80;;;;;;;;;;5094421;28;20065;-85
2022/08/22 02:16:05;;;;;;;4.43;1.70;;;;;;;;;;5094273;28;20044;-86
2022/08/22 02:18:39;;;;;;;2.97;1.88;;;;;;;;;;5090937;28;20430;-85
2022/08/22 02:21:11;;;;;;;3.00;1.83;;;;;;;;;;5091347;28;20020;-86
2022/08/22 02:23:48;;;;;;;3.95;1.70;;;;;;;;;;5091516;28;20036;-86
2022/08/22 02:26:19;;;;;;;4.65;1.83;;;;;;;;;;5094230;28;20399;-86
2022/08/22 02:29:06;;;;;;;4.93;2.13;;;;;;;;;;5094234;28;20032;-86
2022/08/22 02:31:47;;;;;;;4.80;1.85;;;;;;;;;;5083677;28;20016;-86
2022/08/22 02:34:33;;;;;;;3.08;1.67;;;;;;;;;;5088282;28;20037;-86
2022/08/22 02:37:04;;;;;;;3.55;1.70;;;;;;;;;;5074467;28;20074;-86
2022/08/22 02:39:46;;;;;;;3.85;1.80;;;;;;;;;;5075543;28;20146;-86
2022/08/22 02:42:27;;;;;;;4.53;2.03;;;;;;;;;;5073711;28;20025;-86
2022/08/22 02:45:11;;;;;;;5.32;2.05;;;;;;;;;;5087595;28;20028;-86
2022/08/22 02:47:49;;;;;;;4.97;2.00;;;;;;;;;;5093999;28;20470;-86
2022/08/22 02:50:22;;;;;;;3.92;1.75;;;;;;;;;;5093912;28;20024;-86
2022/08/22 02:52:58;;;;;;;4.32;1.73;;;;;;;;;;5093889;28;20110;-86
2022/08/22 02:55:47;;;;;;;3.25;1.77;;;;;;;;;;5094849;28;20083;-86
2022/08/22 02:58:24;;;;;;;4.05;1.58;;;;;;;;;;5093449;28;20111;-85
2022/08/22 03:00:58;;;;;;;3.92;2.00;;;;;;;;;;5073543;28;20028;-86
2022/08/22 03:03:26;;;;;;;5.35;1.75;;;;;;;;;;5092286;28;20024;-86
2022/08/22 03:05:57;;;;;;;4.50;1.77;;;;;;;;;;5095219;28;20047;-86
2022/08/22 03:08:46;;;;;;;4.22;1.80;;;;;;;;;;5088498;28;20493;-86
2022/08/22 03:11:23;;;;;;;5.25;2.17;;;;;;;;;;5088662;28;20024;-87
2022/08/22 03:13:58;;;;;;;3.35;1.70;;;;;;;;;;5074150;28;20028;-86
2022/08/22 03:16:38;;;;;;;4.18;1.92;;;;;;;;;;5093482;28;20474;-85
2022/08/22 03:19:20;;;;;;;5.47;1.67;;;;;;;;;;5077287;28;20032;-86
2022/08/22 03:21:58;;;;;;;3.03;1.65;;;;;;;;;;5074455;28;20028;-86
2022/08/22 03:24:33;;;;;;;4.72;1.83;;;;;;;;;;5091213;28;20107;-86
2022/08/22 03:27:16;;;;;;;2.95;1.67;;;;;;;;;;5093146;28;20067;-85
2022/08/22 03:30:14;;;;;;;3.55;2.00;;;;;;;;;;5093450;28;20024;-86
2022/08/22 03:32:40;;;;;;;;;;;;;;;;;;5050970;28;20040;-86
2022/08/22 03:35:11;;;;;;;2.88;1.88;;;;;;;;;;5072628;28;19962;-86
2022/08/22 03:37:39;;;;;;;3.28;1.60;;;;;;;;;;5072758;28;20027;-86
2022/08/22 03:40:05;;;;;;;2.78;1.70;;;;;;;;;;5073875;28;20020;-86
2022/08/22 03:42:34;;;;;;;3.25;1.73;;;;;;;;;;5072975;28;20058;-86
2022/08/22 03:45:13;;;;;;;3.65;1.77;;;;;;;;;;5072895;28;20039;-86
2022/08/22 03:47:42;;;;;;;4.40;1.80;;;;;;;;;;5072468;28;20024;-86
2022/08/22 03:50:27;;;;;;;2.78;1.75;;;;;;;;;;5072534;28;20029;-86
2022/08/22 03:53:08;;;;;;;3.03;1.92;;;;;;;;;;5073748;28;20025;-87
2022/08/22 03:55:46;;;;;;;4.75;1.85;;;;;;;;;;5072813;28;20033;-86
2022/08/22 03:58:15;;;;;;;3.05;1.80;;;;;;;;;;5072681;28;20110;-86
2022/08/22 04:00:50;;;;;;;4.97;2.28;;;;;;;;;;5076831;28;20559;-86
2022/08/22 04:03:21;;;;;;;4.30;2.10;;;;;;;;;;5092564;28;20017;-85
2022/08/22 04:06:07;;;;;;;3.17;2.10;;;;;;;;;;5092152;28;20024;-86
2022/08/22 04:08:48;;;;;;;4.82;2.22;;;;;;;;;;5092654;28;20063;-86
2022/08/22 04:11:16;;;;;;;5.28;2.25;;;;;;;;;;5093263;28;20020;-86
2022/08/22 04:13:45;;;;;;;2.78;1.90;;;;;;;;;;5092314;28;20508;-86
2022/08/22 04:16:30;;;;;;;4.80;2.17;;;;;;;;;;5089260;28;20019;-85
2022/08/22 04:19:08;;;;;;;4.00;1.92;;;;;;;;;;5092445;28;20035;-86
2022/08/22 04:21:34;;;;;;;;;;;;;;;;;;5092164;28;20020;-85
2022/08/22 04:24:15;;;;;;;3.22;1.80;;;;;;;;;;5092645;28;20396;-85
2022/08/22 04:26:51;;;;;;;5.72;2.50;;;;;;;;;;5091333;28;20044;-86
2022/08/22 04:29:36;;;;;;;3.60;2.10;;;;;;;;;;5092080;28;20448;-86
2022/08/22 04:32:08;;;;;;;4.22;2.20;;;;;;;;;;5089699;28;20028;-86
2022/08/22 04:34:39;;;;;;;6.60;2.45;;;;;;;;;;5088118;28;20037;-86
2022/08/22 04:37:24;;;;;;;4.60;2.63;;;;;;;;;;5082206;28;20023;-86
2022/08/22 04:39:59;;;;;;;4.97;2.30;;;;;;;;;;5093424;28;20024;-86
2022/08/22 04:42:29;;;;;;;2.70;2.05;;;;;;;;;;5092084;28;20027;-85
2022/08/22 04:45:10;;;;;;;3.90;2.13;;;;;;;;;;5077268;28;20069;-85
2022/08/22 04:47:42;;;;;;;3.75;2.10;;;;;;;;;;5080401;28;20111;-85
2022/08/22 04:50:21;;;;;;;5.18;2.00;;;;;;;;;;5092588;28;20074;-85
2022/08/22 04:52:56;;;;;;;4.55;2.35;;;;;;;;;;5080720;28;20027;-86
2022/08/22 04:55:31;;;;;;;4.75;2.30;;;;;;;;;;5079804;28;20424;-86
2022/08/22 04:58:03;;;;;;;3.75;1.98;;;;;;;;;;5084524;28;20031;-86
2022/08/22 05:00:35;;;;;;;4.65;2.20;;;;;;;;;;5074195;28;20019;-85
2022/08/22 05:03:02;;;;;;;5.85;2.92;;;;;;;;;;5070948;28;20173;-86
2022/08/22 05:05:34;;;;;;;6.35;2.72;;;;;;;;;;5070049;28;20078;-86
2022/08/22 05:08:02;;;;;;;6.32;2.50;;;;;;;;;;5072410;28;20505;-85
2022/08/22 05:10:35;;;;;;;5.32;2.67;;;;;;;;;;5078438;28;20020;-85
2022/08/22 05:13:12;;;;;;;4.00;2.25;;;;;;;;;;5083727;28;20029;-85
2022/08/22 05:15:41;;;;;;;5.38;2.60;;;;;;;;;;5092033;28;20033;-84
2022/08/22 05:18:09;;;;;;;5.28;2.35;;;;;;;;;;5075780;28;20029;-85
2022/08/22 05:20:35;;;;;;;4.38;2.30;;;;;;;;;;5079133;28;20051;-85
2022/08/22 05:23:06;;;;;;;3.90;2.47;;;;;;;;;;5086372;28;20107;-85
2022/08/22 05:25:36;;;;;;;4.85;2.30;;;;;;;;;;5072709;28;20021;-86
2022/08/22 05:28:14;;;;;;;3.85;2.40;;;;;;;;;;5088682;28;20398;-85
2022/08/22 05:30:42;;;;;;;3.50;2.30;;;;;;;;;;5081048;28;20031;-85
2022/08/22 05:33:11;;;;;;;3.97;2.53;;;;;;;;;;5074928;28;20028;-85
2022/08/22 05:35:39;;;;;;;5.68;2.50;;;;;;;;;;5085198;28;20047;-85
2022/08/22 05:38:07;;;;;;;4.43;2.40;;;;;;;;;;5079135;28;20020;-86
2022/08/22 05:40:36;;;;;;;5.80;2.50;;;;;;;;;;5071364;28;20114;-85
2022/08/22 05:43:02;;;;;;;;;;;;;;;;;;5073971;28;20017;-85
2022/08/22 05:45:28;;;;;;;4.63;2.47;;;;;;;;;;5075865;28;20274;-86
2022/08/22 05:48:17;;;;;;;4.55;2.55;;;;;;;;;;5071351;28;20340;-85
2022/08/22 05:51:09;;;;;;;3.00;2.25;;;;;;;;;;5069637;28;20386;-84
2022/08/22 05:53:37;;;;;;;5.82;2.83;;;;;;;;;;5081061;28;20033;-84
2022/08/22 05:56:12;;;;;;;4.78;2.50;;;;;;;;;;5077364;28;20059;-85
2022/08/22 05:58:40;;;;;;;3.65;2.65;;;;;;;;;;5076026;28;20035;-84
2022/08/22 06:01:25;;;;;;;5.03;2.95;;;;;;;;;;5076528;28;20109;-84
2022/08/22 06:04:10;;;;;;;4.20;2.58;;;;;;;;;;5073336;28;20066;-85
2022/08/22 06:06:42;;;;;;;7.18;3.00;;;;;;;;;;5080208;28;20390;-85
2022/08/22 06:09:17;;;;;;;4.75;2.95;;;;;;;;;;5080262;28;20077;-85
2022/08/22 06:11:51;;;;;;;5.32;2.90;;;;;;;;;;5085525;28;20082;-83
2022/08/22 06:14:27;;;;;;;9.68;3.30;;;;;;;;;;5084242;28;20059;-85
2022/08/22 06:17:06;;;;;;;3.53;2.83;;;;;;;;;;5078940;28;20032;-85
2022/08/22 06:19:37;;;;;;;7.20;3.28;;;;;;;;;;5076111;28;20028;-84
2022/08/22 06:22:04;;;;;;;8.15;3.40;;;;;;;;;;5077677;28;20031;-85
2022/08/22 06:24:31;;;;;;;5.53;3.20;;;;;;;;;;5082655;28;20093;-85
2022/08/22 06:27:01;;;;;;;4.95;3.05;;;;;;;;;;5087867;28;20099;-84
2022/08/22 06:29:29;;;;;;;6.30;3.20;;;;;;;;;;5080320;28;20414;-84
2022/08/22 06:31:56;;;;;;;6.35;2.83;;;;;;;;;;5073008;28;20028;-85
2022/08/22 06:34:25;;;;;;;7.15;2.92;;;;;;;;;;5073447;28;20060;-84
2022/08/22 06:36:51;;;;;;;7.43;3.20;;;;;;;;;;5074693;28;20025;-85
2022/08/22 06:39:22;;;;;;;8.30;3.40;;;;;;;;;;5093864;28;20454;-85
2022/08/22 06:41:52;;;;;;;5.78;3.08;;;;;;;;;;5094096;28;20038;-85
2022/08/22 06:44:23;;;;;;;7.32;3.38;;;;;;;;;;5093486;28;20020;-85
2022/08/22 06:46:52;;;;;;;8.73;2.97;;;;;;;;;;5091918;28;20024;-84
2022/08/22 06:49:18;;;;;;;;;;;;;;;;;;5081485;28;20024;-85
2022/08/22 06:51:44;;;;;;;5.80;2.85;;;;;;;;;;5080413;28;19904;-85
2022/08/22 06:54:20;;;;;;;7.53;3.05;;;;;;;;;;5093253;28;20035;-84
2022/08/22 06:56:48;;;;;;;14.15;3.17;;;;;;;;;;5092882;28;20506;-85
2022/08/22 06:59:15;;;;;;;6.63;3.20;;;;;;;;;;5084713;28;20050;-85
2022/08/22 07:02:01;;;;;;;7.80;3.30;;;;;;;;;;5081709;28;20020;-85
2022/08/22 07:04:27;;;;;;;7.75;3.70;;;;;;;;;;5083109;28;20020;-85
2022/08/22 07:06:55;;;;;;;7.10;3.42;;;;;;;;;;5085318;28;20095;-85
2022/08/22 07:09:31;;;;;;;6.22;3.75;;;;;;;;;;5074194;28;20066;-85
2022/08/22 07:12:00;;;;;;;7.25;3.75;;;;;;;;;;5075111;28;20122;-84
2022/08/22 07:14:48;;;;;;;6.57;3.72;;;;;;;;;;5081090;28;20478;-84
2022/08/22 07:17:20;;;;;;;6.30;4.20;;;;;;;;;;5080829;28;20444;-85
2022/08/22 07:19:47;;;;;;;8.88;4.88;;;;;;;;;;5078400;28;20029;-85
2022/08/22 07:22:15;;;;;;;7.63;4.20;;;;;;;;;;5072604;28;20080;-85
2022/08/22 07:24:47;;;;;;;8.73;4.07;;;;;;;;;;5079753;28;20265;-85
2022/08/22 07:27:21;;;;;;;8.20;3.90;;;;;;;;;;5075285;28;20070;-86
2022/08/22 07:29:53;;;;;;;6.47;4.50;;;;;;;;;;5077666;28;20022;-86
2022/08/22 07:32:21;;;;;;;10.68;4.38;;;;;;;;;;5082619;28;20119;-84
2022/08/22 07:35:23;;;;;;;8.05;3.72;;;;;;;;;;5083921;28;20082;-84
2022/08/22 07:38:01;;;;;;;7.75;4.30;;;;;;;;;;4999458;28;20044;-85
2022/08/22 07:40:47;;;;;;;5.75;3.35;;;;;;;;;;5065221;28;20141;-84
2022/08/22 07:43:13;;;;;;;7.43;3.85;;;;;;;;;;5091110;28;20031;-86
2022/08/22 07:45:48;;;;;;;6.53;4.00;;;;;;;;;;5080229;28;20020;-85
2022/08/22 07:48:20;;;;;;;6.38;3.67;;;;;;;;;;5083890;28;20478;-85
2022/08/22 07:50:57;;;;;;;7.25;3.92;;;;;;;;;;5092441;28;20115;-85
2022/08/22 07:53:34;;;;;;;8.38;4.60;;;;;;;;;;5087468;28;20361;-84
2022/08/22 07:56:02;;;;;;;5.93;3.45;;;;;;;;;;5091443;28;20475;-85
2022/08/22 07:58:30;;;;;;;5.03;3.40;;;;;;;;;;5091267;28;20374;-85
2022/08/22 08:00:56;;;;;;;7.85;4.40;;;;;;;;;;5092182;28;20038;-85
2022/08/22 08:03:23;;;;;;;6.13;3.50;;;;;;;;;;5083329;28;20047;-85
2022/08/22 08:05:49;;;;;;;6.13;3.50;;;;;;;;;;5071577;28;20024;-85
2022/08/22 08:08:30;;;;;;;6.85;3.70;;;;;;;;;;5070981;28;20029;-85
2022/08/22 08:10:58;;;;;;;6.60;3.08;;;;;;;;;;5072023;28;20028;-85
2022/08/22 08:13:31;;;;;;;6.28;3.10;;;;;;;;;;5090929;28;20024;-85
2022/08/22 08:15:58;;;;;;;5.53;2.85;;;;;;;;;;5091833;28;20027;-85
2022/08/22 08:18:26;;;;;;;6.85;3.00;;;;;;;;;;5087615;28;20035;-85
2022/08/22 08:20:54;;;;;;;6.65;3.20;;;;;;;;;;5091830;28;20074;-85
2022/08/22 08:23:20;;;;;;;6.43;3.30;;;;;;;;;;5092081;28;20101;-85
2022/08/22 08:25:56;;;;;;;6.20;2.83;;;;;;;;;;5076803;28;20074;-85
2022/08/22 08:28:36;;;;;;;5.82;3.17;;;;;;;;;;5070249;28;20036;-85
2022/08/22 08:31:38;;;;;;;6.20;2.88;;;;;;;;;;5072694;28;20052;-85
2022/08/22 08:34:06;;;;;;;5.20;2.53;;;;;;;;;;5000209;28;20065;-85
2022/08/22 08:36:35;;;;;;;7.13;2.97;;;;;;;;;;5069112;28;20028;-85
2022/08/22 08:39:11;;;;;;;4.63;2.47;;;;;;;;;;5081009;28;21547;-86
2022/08/22 08:41:49;;;;;;;5.47;2.47;;;;;;;;;;5081643;28;20378;-86
2022/08/22 08:44:36;;;;;;;5.97;2.55;;;;;;;;;;5085493;28;20116;-85
2022/08/22 08:47:01;;;;;;;4.60;2.45;;;;;;;;;;5082565;28;20107;-85
2022/08/22 08:49:42;;;;;;;5.30;2.53;;;;;;;;;;5075232;28;20115;-85
2022/08/22 08:52:24;;;;;;;5.60;2.55;;;;;;;;;;5082109;28;20470;-86
2022/08/22 08:54:53;;;;;;;5.65;2.50;;;;;;;;;;5075649;28;20064;-85
2022/08/22 08:57:22;;;;;;;6.65;2.65;;;;;;;;;;5078264;28;20373;-85
2022/08/22 08:59:59;;;;;;;4.57;2.38;;;;;;;;;;5078992;28;20028;-86
2022/08/22 09:02:28;;;;;;;5.00;2.80;;;;;;;;;;5078240;28;20100;-86
2022/08/22 09:05:00;;;;;;;8.15;2.78;;;;;;;;;;5083349;28;20572;-85
2022/08/22 09:07:45;;;;;;;5.15;2.80;;;;;;;;;;5074367;28;20021;-85
2022/08/22 09:10:21;;;;;;;5.70;2.22;;;;;;;;;;5080030;28;20024;-85
2022/08/22 09:13:05;;;;;;;4.32;2.20;;;;;;;;;;5073839;28;20055;-86
2022/08/22 09:15:37;;;;;;;4.30;2.33;;;;;;;;;;5077023;28;20044;-86
2022/08/22 09:18:03;;;;;;;4.10;2.03;;;;;;;;;;5077513;28;20025;-85
2022/08/22 09:20:48;;;;;;;3.00;1.90;;;;;;;;;;5085599;28;20331;-85
2022/08/22 09:23:33;;;;;;;7.47;2.30;;;;;;;;;;5090486;28;20489;-85
2022/08/22 09:26:01;;;;;;;3.38;2.00;;;;;;;;;;5089973;28;20052;-86
2022/08/22 09:28:38;;;;;;;6.28;2.08;;;;;;;;;;5085235;28;20430;-85
2022/08/22 09:31:14;;;;;;;3.85;1.98;;;;;;;;;;5068920;28;20086;-85
2022/08/22 09:34:06;;;;;;;4.47;2.20;;;;;;;;;;5069307;28;20043;-85
2022/08/22 09:37:03;;;;;;;4.93;1.90;;;;;;;;;;5065783;28;20040;-85
2022/08/22 09:39:38;;;;;;;4.95;2.25;;;;;;;;;;5070218;28;20016;-85
2022/08/22 09:42:10;;;;;;;4.32;2.28;;;;;;;;;;5069376;28;20025;-85
2022/08/22 09:44:55;;;;;;;4.43;2.30;;;;;;;;;;5073367;28;20027;-85
2022/08/22 09:47:23;;;;;;;2.40;1.77;;;;;;;;;;5074047;28;20024;-85
2022/08/22 09:50:12;;;;;;;4.50;1.90;;;;;;;;;;5074080;28;20024;-85
2022/08/22 09:52:57;;;;;;;7.20;2.28;;;;;;;;;;5080250;28;20379;-85
2022/08/22 09:55:35;;;;;;;5.47;2.15;;;;;;;;;;5077543;28;20398;-85
2022/08/22 09:58:24;;;;;;;6.55;2.33;;;;;;;;;;5083049;28;20016;-86
2022/08/22 10:00:59;;;;;;;4.05;2.08;;;;;;;;;;5080419;28;20082;-85
2022/08/22 10:03:48;;;;;;;3.40;1.85;;;;;;;;;;5075081;28;20028;-85
2022/08/22 10:06:20;;;;;;;6.72;2.20;;;;;;;;;;5045891;28;20032;-85
2022/08/22 10:08:46;;;;;;;4.05;2.25;;;;;;;;;;5080691;28;20112;-85
2022/08/22 10:11:24;;;;;;;4.15;2.20;;;;;;;;;;5077519;28;20111;-86
2022/08/22 10:13:54;;;;;;;3.50;1.90;;;;;;;;;;5089234;28;20027;-85
2022/08/22 10:16:43;;;;;;;2.95;1.67;;;;;;;;;;5085762;28;20036;-85
2022/08/22 10:19:25;;;;;;;5.05;1.90;;;;;;;;;;5078345;28;20429;-85
2022/08/22 10:21:51;;;;;;;4.43;1.98;;;;;;;;;;5092457;28;20114;-85
2022/08/22 10:24:23;;;;;;;3.17;1.45;;;;;;;;;;5093202;28;20123;-85
2022/08/22 10:26:52;;;;;;;5.15;2.40;;;;;;;;;;5092867;28;20105;-85
2022/08/22 10:29:36;;;;;;;5.95;2.20;;;;;;;;;;5086275;28;20020;-85
2022/08/22 10:32:13;;;;;;;6.55;2.08;;;;;;;;;;5075208;28;20039;-85
2022/08/22 10:34:43;;;;;;;4.63;1.80;;;;;;;;;;5093518;28;20020;-85
2022/08/22 10:37:09;;;;;;;4.90;2.20;;;;;;;;;;5093331;28;20028;-85
2022/08/22 10:39:48;;;;;;;3.72;1.95;;;;;;;;;;5090014;28;20428;-85
2022/08/22 10:42:26;;;;;;;5.07;2.20;;;;;;;;;;5094164;28;20458;-85
2022/08/22 10:45:17;;;;;;;5.03;1.70;;;;;;;;;;5087792;28;20058;-85
2022/08/22 10:47:52;;;;;;;3.70;1.95;;;;;;;;;;5088586;28;20024;-85
2022/08/22 10:50:22;;;;;;;3.38;1.95;;;;;;;;;;5084916;28;20035;-86
2022/08/22 10:53:28;;;;;;;3.53;1.80;;;;;;;;;;5075773;28;20031;-86
2022/08/22 10:55:38;;;;;;;4.53;1.80;;;;;;;;;;5085813;28;20070;-86
2022/08/22 10:58:08;;;;;;;5.70;2.75;;;;;;;;;;5075109;28;20035;-84
2022/08/22 11:00:54;;;;;;;3.72;1.85;;;;;;;;;;5077791;28;20032;-85
2022/08/22 11:03:31;;;;;;;3.30;1.85;;;;;;;;;;5081430;28;20050;-85
2022/08/22 11:05:58;;;;;;;3.65;1.90;;;;;;;;;;5078591;28;20025;-85
2022/08/22 11:08:37;;;;;;;5.63;2.33;;;;;;;;;;5082581;28;20024;-85
2022/08/22 11:11:02;;;;;;;4.55;2.20;;;;;;;;;;5080772;28;20486;-86
2022/08/22 11:13:33;;;;;;;4.15;1.88;;;;;;;;;;5079311;28;20021;-85
2022/08/22 11:16:20;;;;;;;4.15;1.60;;;;;;;;;;5080055;28;20440;-85
2022/08/22 11:18:59;;;;;;;5.82;1.80;;;;;;;;;;5051550;28;20154;-86
2022/08/22 11:21:25;;;;;;;5.50;1.83;;;;;;;;;;5079968;28;20028;-86
2022/08/22 11:24:00;;;;;;;4.40;1.90;;;;;;;;;;5080698;28;20033;-85
2022/08/22 11:26:40;;;;;;;2.55;1.52;;;;;;;;;;5086746;28;20380;-86
2022/08/22 11:29:12;;;;;;;3.53;1.55;;;;;;;;;;5081594;28;20036;-85
2022/08/22 11:31:57;;;;;;;4.72;2.08;;;;;;;;;;5077987;28;20021;-86
2022/08/22 11:34:23;;;;;;;7.35;2.08;;;;;;;;;;5080453;28;20084;-86
2022/08/22 11:36:54;;;;;;;3.70;1.73;;;;;;;;;;5077748;28;20098;-84
2022/08/22 11:39:39;;;;;;;3.55;1.80;;;;;;;;;;5080194;28;20031;-86
2022/08/22 11:42:08;;;;;;;3.63;1.60;;;;;;;;;;5078179;28;20066;-85
2022/08/22 11:44:41;;;;;;;2.42;1.40;;;;;;;;;;5079983;28;20028;-85
2022/08/22 11:47:10;;;;;;;2.33;1.58;;;;;;;;;;5079363;28;20029;-85
2022/08/22 11:49:51;;;;;;;3.63;1.60;;;;;;;;;;5076381;28;20097;-85
2022/08/22 11:52:20;;;;;;;3.60;1.48;;;;;;;;;;5075248;28;20079;-86
2022/08/22 11:54:49;;;;;;;2.97;1.60;;;;;;;;;;5083288;28;20386;-85
2022/08/22 11:57:25;;;;;;;3.33;1.60;;;;;;;;;;5076400;28;20108;-86
2022/08/22 12:00:08;;;;;;;2.17;1.38;;;;;;;;;;5080844;28;20077;-86
2022/08/22 12:03:05;;;;;;;3.13;1.60;;;;;;;;;;5091758;28;20024;-85
2022/08/22 12:06:00;;;;;;;2.83;1.65;;;;;;;;;;5071123;28;20036;-85
2022/08/22 12:08:29;;;;;;;3.10;1.42;;;;;;;;;;5065209;28;20041;-86
2022/08/22 12:10:59;;;;;;;3.88;1.38;;;;;;;;;;5075412;28;20520;-85
2022/08/22 12:13:25;;;;;;;1.98;1.30;;;;;;;;;;5084894;28;20047;-85
2022/08/22 12:16:03;;;;;;;3.22;1.63;;;;;;;;;;5076130;28;20478;-85
2022/08/22 12:18:29;;;;;;;6.57;1.60;;;;;;;;;;5077059;28;20073;-86
2022/08/22 12:21:02;;;;;;;3.38;1.38;;;;;;;;;;5080339;28;20033;-85
2022/08/22 12:23:44;;;;;;;3.08;1.77;;;;;;;;;;5079874;28;20028;-86
2022/08/22 12:26:10;;;;;;;3.05;1.50;;;;;;;;;;5084758;28;20040;-86
2022/08/22 12:28:55;;;;;;;3.05;1.40;;;;;;;;;;5077575;28;20347;-85
2022/08/22 12:31:42;;;;;;;3.55;1.80;;;;;;;;;;5071398;28;20025;-85
2022/08/22 12:34:21;;;;;;;3.65;1.65;;;;;;;;;;5073270;28;20482;-85
2022/08/22 12:36:47;;;;;;;5.03;1.60;;;;;;;;;;5077525;28;20039;-85
2022/08/22 12:39:34;;;;;;;2.80;1.70;;;;;;;;;;5089743;28;20020;-85
2022/08/22 12:42:19;;;;;;;3.65;1.80;;;;;;;;;;5079949;28;20516;-85
2022/08/22 12:44:45;;;;;;;3.45;1.85;;;;;;;;;;5079136;28;20028;-85
2022/08/22 12:47:15;;;;;;;3.55;1.40;;;;;;;;;;5081740;28;20043;-85
2022/08/22 12:50:00;;;;;;;2.28;1.40;;;;;;;;;;5080357;28;20028;-85
2022/08/22 12:52:44;;;;;;;3.17;1.77;;;;;;;;;;5075178;28;20048;-86
2022/08/22 12:55:22;;;;;;;2.80;1.63;;;;;;;;;;5070957;28;20040;-86
2022/08/22 12:57:56;;;;;;;5.30;1.95;;;;;;;;;;5071729;28;20020;-86
2022/08/22 13:00:31;;;;;;;4.57;1.90;;;;;;;;;;5081174;28;20032;-86
2022/08/22 13:03:00;;;;;;;5.05;1.98;;;;;;;;;;5093189;28;20024;-87
2022/08/22 13:05:28;;;;;;;3.13;1.75;;;;;;;;;;5085069;28;20056;-86
2022/08/22 13:07:55;;;;;;;4.45;2.25;;;;;;;;;;5092559;28;20061;-86
2022/08/22 13:10:24;;;;;;;3.55;2.00;;;;;;;;;;5080399;28;20033;-87
2022/08/22 13:12:53;;;;;;;2.25;1.60;;;;;;;;;;5081465;28;20116;-86
2022/08/22 13:15:27;;;;;;;3.33;1.83;;;;;;;;;;5082195;28;20063;-87
2022/08/22 13:17:54;;;;;;;2.72;1.55;;;;;;;;;;5080525;28;20028;-86
2022/08/22 13:20:29;;;;;;;4.38;2.20;;;;;;;;;;5084275;28;20031;-86
2022/08/22 13:22:55;;;;;;;5.63;1.77;;;;;;;;;;5075923;28;20475;-86
2022/08/22 13:25:22;;;;;;;4.38;2.10;;;;;;;;;;5085503;28;20035;-86
2022/08/22 13:27:50;;;;;;;6.78;1.90;;;;;;;;;;5096389;28;20047;-86
2022/08/22 13:30:19;;;;;;;7.03;2.40;;;;;;;;;;5094896;28;20093;-86
2022/08/22 13:32:47;;;;;;;2.50;1.60;;;;;;;;;;5075184;28;20033;-86
2022/08/22 13:35:19;;;;;;;2.78;1.95;;;;;;;;;;5086742;28;20393;-86
2022/08/22 13:37:47;;;;;;;3.45;1.83;;;;;;;;;;5075507;28;20052;-86
2022/08/22 13:40:23;;;;;;;4.75;1.98;;;;;;;;;;5076048;28;20483;-86
2022/08/22 13:42:51;;;;;;;4.63;1.88;;;;;;;;;;5076143;28;20088;-85
2022/08/22 13:45:22;;;;;;;5.10;2.13;;;;;;;;;;5082279;28;20028;-86
2022/08/22 13:47:51;;;;;;;4.53;2.10;;;;;;;;;;5085314;28;20056;-86
2022/08/22 13:50:17;;;;;;;;;;;;;;;;;;5082003;28;20054;-86
2022/08/22 13:52:47;;;;;;;7.05;2.25;;;;;;;;;;5095852;28;20269;-87
2022/08/22 13:55:20;;;;;;;3.55;1.80;;;;;;;;;;5094917;28;20091;-85
2022/08/22 13:57:49;;;;;;;5.50;1.98;;;;;;;;;;5095689;28;20378;-84
2022/08/22 14:00:17;;;;;;;3.63;2.08;;;;;;;;;;5086215;28;20460;-85
2022/08/22 14:02:56;;;;;;;3.08;1.90;;;;;;;;;;5081651;28;20350;-85
2022/08/22 14:05:31;;;;;;;3.85;2.00;;;;;;;;;;5088591;28;20063;-84
2022/08/22 14:07:57;;;;;;;7.50;2.10;;;;;;;;;;5078350;28;20032;-84
2022/08/22 14:10:26;;;;;;;3.75;1.98;;;;;;;;;;5083785;28;20031;-84
2022/08/22 14:12:55;;;;;;;3.28;1.80;;;;;;;;;;5082348;28;20370;-84
2022/08/22 14:15:23;;;;;;;4.88;1.90;;;;;;;;;;5077956;28;20043;-85
2022/08/22 14:17:51;;;;;;;3.63;2.17;;;;;;;;;;5082122;28;20032;-85
2022/08/22 14:20:22;;;;;;;4.13;1.90;;;;;;;;;;5081747;28;20024;-85
2022/08/22 14:23:02;;;;;;;2.95;1.88;;;;;;;;;;5082374;28;21513;-87
2022/08/22 14:25:33;;;;;;;2.63;1.60;;;;;;;;;;5080587;28;20025;-84
2022/08/22 14:28:01;;;;;;;3.65;1.63;;;;;;;;;;5076369;28;20049;-86
2022/08/22 14:30:30;;;;;;;4.32;2.05;;;;;;;;;;5084190;28;20048;-85
2022/08/22 14:33:31;;;;;;;4.05;2.00;;;;;;;;;;5087875;28;20025;-85
2022/08/22 14:36:00;;;;;;;5.28;2.00;;;;;;;;;;5012661;28;20034;-85
2022/08/22 14:38:28;;;;;;;4.75;1.90;;;;;;;;;;5059383;28;20040;-85
2022/08/22 14:41:04;;;;;;;3.08;1.65;;;;;;;;;;5079010;28;20030;-84
2022/08/22 14:43:30;;;;;;;4.80;2.15;;;;;;;;;;5095283;28;20505;-85
2022/08/22 14:45:58;;;;;;;3.47;1.75;;;;;;;;;;5082770;28;20056;-84
2022/08/22 14:48:26;;;;;;;4.75;2.10;;;;;;;;;;5078918;28;20016;-85
2022/08/22 14:50:55;;;;;;;3.63;1.70;;;;;;;;;;5077941;28;20024;-85
2022/08/22 14:53:20;;;;;;;2.83;1.80;;;;;;;;;;5093911;28;20064;-85
2022/08/22 14:55:56;;;;;;;2.97;1.83;;;;;;;;;;5093881;28;20397;-86
2022/08/22 14:58:22;;;;;;;4.72;2.08;;;;;;;;;;5094576;28;20069;-88
2022/08/22 15:00:49;;;;;;;2.47;1.80;;;;;;;;;;5083451;28;20031;-85
2022/08/22 15:03:22;;;;;;;5.00;1.92;;;;;;;;;;5073983;28;20025;-85
2022/08/22 15:05:53;;;;;;;3.75;2.00;;;;;;;;;;5073805;28;20021;-86
2022/08/22 15:08:20;;;;;;;6.80;2.17;;;;;;;;;;5075640;28;20025;-86
2022/08/22 15:10:47;;;;;;;2.88;2.10;;;;;;;;;;5075555;28;20024;-86
2022/08/22 15:13:13;;;;;;;3.58;1.90;;;;;;;;;;5074173;28;20020;-86
2022/08/22 15:15:41;;;;;;;3.53;1.90;;;;;;;;;;5074032;28;20037;-85
2022/08/22 15:18:14;;;;;;;3.42;2.03;;;;;;;;;;5073620;28;20032;-83
2022/08/22 15:20:40;;;;;;;4.40;1.80;;;;;;;;;;5073485;28;20119;-86
2022/08/22 15:23:08;;;;;;;3.45;1.70;;;;;;;;;;5074585;28;20104;-86
2022/08/22 15:25:35;;;;;;;4.80;2.20;;;;;;;;;;5073251;28;20020;-86
2022/08/22 15:28:06;;;;;;;4.88;2.20;;;;;;;;;;5074659;28;20051;-86